sensor_id;sensor_type;location;lat;lon;timestamp;P1;durP1;ratioP1;P2;durP2;ratioP2
18001;SDS011;9126;48.160;17.130;2022-07-29T00:02:06;7.22;;;5.10;;
18001;SDS011;9126;48.160;17.130;2022-07-29T00:04:33;7.28;;;6.68;;
18001;SDS011;9126;48.160;17.130;2022-07-29T00:07:01;10.02;;;9.13;;
18001;SDS011;9126;48.160;17.130;2022-07-29T00:09:28;10.48;;;9.45;;
18001;SDS011;9126;48.160;17.130;2022-07-29T00:11:56;11.93;;;10.20;;
18001;SDS011;9126;48.160;17.130;2022-07-29T00:14:25;11.85;;;10.68;;
18001;SDS011;9126;48.160;17.130;2022-07-29T00:16:54;10.35;;;9.40;;
18001;SDS011;9126;48.160;17.130;2022-07-29T00:19:21;9.68;;;8.88;;
18001;SDS011;9126;48.160;17.130;2022-07-29T00:21:48;10.50;;;9.43;;
18001;SDS011;9126;48.160;17.130;2022-07-29T00:24:15;10.20;;;9.20;;
18001;SDS011;9126;48.160;17.130;2022-07-29T00:26:42;10.20;;;9.18;;
18001;SDS011;9126;48.160;17.130;2022-07-29T00:29:09;12.30;;;9.40;;
18001;SDS011;9126;48.160;17.130;2022-07-29T00:31:36;8.98;;;8.18;;
18001;SDS011;9126;48.160;17.130;2022-07-29T00:34:05;8.55;;;7.63;;
18001;SDS011;9126;48.160;17.130;2022-07-29T00:36:52;7.65;;;6.95;;
18001;SDS011;9126;48.160;17.130;2022-07-29T00:39:18;9.52;;;6.28;;
18001;SDS011;9126;48.160;17.130;2022-07-29T00:41:45;6.75;;;6.07;;
18001;SDS011;9126;48.160;17.130;2022-07-29T00:44:12;7.80;;;5.90;;
18001;SDS011;9126;48.160;17.130;2022-07-29T00:46:39;5.88;;;5.38;;
18001;SDS011;9126;48.160;17.130;2022-07-29T00:49:08;5.90;;;4.28;;
18001;SDS011;9126;48.160;17.130;2022-07-29T00:51:35;5.93;;;5.05;;
18001;SDS011;9126;48.160;17.130;2022-07-29T00:54:04;6.75;;;6.05;;
18001;SDS011;9126;48.160;17.130;2022-07-29T00:56:32;7.20;;;6.20;;
18001;SDS011;9126;48.160;17.130;2022-07-29T00:58:59;7.35;;;6.65;;
18001;SDS011;9126;48.160;17.130;2022-07-29T01:01:26;7.10;;;6.38;;
18001;SDS011;9126;48.160;17.130;2022-07-29T01:03:54;10.50;;;6.75;;
18001;SDS011;9126;48.160;17.130;2022-07-29T01:06:22;7.70;;;6.90;;
18001;SDS011;9126;48.160;17.130;2022-07-29T01:08:51;8.18;;;7.47;;
18001;SDS011;9126;48.160;17.130;2022-07-29T01:11:18;8.13;;;7.32;;
18001;SDS011;9126;48.160;17.130;2022-07-29T01:13:46;9.25;;;8.23;;
18001;SDS011;9126;48.160;17.130;2022-07-29T01:16:15;7.57;;;6.97;;
18001;SDS011;9126;48.160;17.130;2022-07-29T01:18:47;7.82;;;7.13;;
18001;SDS011;9126;48.160;17.130;2022-07-29T01:21:23;9.52;;;7.28;;
18001;SDS011;9126;48.160;17.130;2022-07-29T01:24:23;7.07;;;5.57;;
18001;SDS011;9126;48.160;17.130;2022-07-29T01:27:04;6.97;;;6.25;;
18001;SDS011;9126;48.160;17.130;2022-07-29T01:29:49;7.55;;;6.82;;
18001;SDS011;9126;48.160;17.130;2022-07-29T01:32:22;6.18;;;5.57;;
18001;SDS011;9126;48.160;17.130;2022-07-29T01:34:53;7.10;;;6.40;;
18001;SDS011;9126;48.160;17.130;2022-07-29T01:37:24;6.53;;;5.93;;
18001;SDS011;9126;48.160;17.130;2022-07-29T01:39:55;6.63;;;6.03;;
18001;SDS011;9126;48.160;17.130;2022-07-29T01:42:26;9.40;;;6.40;;
18001;SDS011;9126;48.160;17.130;2022-07-29T01:45:00;8.18;;;7.07;;
18001;SDS011;9126;48.160;17.130;2022-07-29T01:47:33;7.32;;;6.63;;
18001;SDS011;9126;48.160;17.130;2022-07-29T01:50:05;8.07;;;7.25;;
18001;SDS011;9126;48.160;17.130;2022-07-29T01:52:37;7.90;;;7.20;;
18001;SDS011;9126;48.160;17.130;2022-07-29T01:55:10;8.93;;;8.07;;
18001;SDS011;9126;48.160;17.130;2022-07-29T01:57:40;9.05;;;8.15;;
18001;SDS011;9126;48.160;17.130;2022-07-29T02:00:11;11.10;;;8.32;;
18001;SDS011;9126;48.160;17.130;2022-07-29T02:02:41;14.18;;;9.10;;
18001;SDS011;9126;48.160;17.130;2022-07-29T02:05:11;8.85;;;7.95;;
18001;SDS011;9126;48.160;17.130;2022-07-29T02:07:41;8.23;;;6.97;;
18001;SDS011;9126;48.160;17.130;2022-07-29T02:10:09;9.90;;;6.53;;
18001;SDS011;9126;48.160;17.130;2022-07-29T02:12:38;8.20;;;5.70;;
18001;SDS011;9126;48.160;17.130;2022-07-29T02:15:07;7.70;;;6.13;;
18001;SDS011;9126;48.160;17.130;2022-07-29T02:17:39;6.43;;;5.35;;
18001;SDS011;9126;48.160;17.130;2022-07-29T02:20:09;5.18;;;4.72;;
18001;SDS011;9126;48.160;17.130;2022-07-29T02:22:37;4.80;;;4.40;;
18001;SDS011;9126;48.160;17.130;2022-07-29T02:25:05;4.80;;;4.40;;
18001;SDS011;9126;48.160;17.130;2022-07-29T02:27:34;5.18;;;4.15;;
18001;SDS011;9126;48.160;17.130;2022-07-29T02:30:04;5.65;;;3.75;;
18001;SDS011;9126;48.160;17.130;2022-07-29T02:32:34;5.55;;;3.78;;
18001;SDS011;9126;48.160;17.130;2022-07-29T02:35:05;5.15;;;4.10;;
18001;SDS011;9126;48.160;17.130;2022-07-29T02:37:35;4.55;;;4.15;;
18001;SDS011;9126;48.160;17.130;2022-07-29T02:40:04;5.45;;;3.75;;
18001;SDS011;9126;48.160;17.130;2022-07-29T02:42:35;6.25;;;3.80;;
18001;SDS011;9126;48.160;17.130;2022-07-29T02:45:04;5.93;;;3.63;;
18001;SDS011;9126;48.160;17.130;2022-07-29T02:47:33;4.32;;;3.70;;
18001;SDS011;9126;48.160;17.130;2022-07-29T02:50:06;6.75;;;4.30;;
18001;SDS011;9126;48.160;17.130;2022-07-29T02:52:37;6.45;;;4.18;;
18001;SDS011;9126;48.160;17.130;2022-07-29T02:55:10;5.55;;;3.65;;
18001;SDS011;9126;48.160;17.130;2022-07-29T02:57:41;5.75;;;3.50;;
18001;SDS011;9126;48.160;17.130;2022-07-29T03:00:11;4.45;;;4.00;;
18001;SDS011;9126;48.160;17.130;2022-07-29T03:02:39;5.32;;;3.60;;
18001;SDS011;9126;48.160;17.130;2022-07-29T03:05:13;6.65;;;4.00;;
18001;SDS011;9126;48.160;17.130;2022-07-29T03:07:44;5.78;;;4.78;;
18001;SDS011;9126;48.160;17.130;2022-07-29T03:10:14;6.15;;;4.53;;
18001;SDS011;9126;48.160;17.130;2022-07-29T03:12:41;7.07;;;4.93;;
18001;SDS011;9126;48.160;17.130;2022-07-29T03:15:13;5.80;;;5.30;;
18001;SDS011;9126;48.160;17.130;2022-07-29T03:17:40;8.20;;;6.82;;
18001;SDS011;9126;48.160;17.130;2022-07-29T03:20:09;7.47;;;6.63;;
18001;SDS011;9126;48.160;17.130;2022-07-29T03:22:39;8.50;;;7.40;;
18001;SDS011;9126;48.160;17.130;2022-07-29T03:25:09;8.38;;;7.57;;
18001;SDS011;9126;48.160;17.130;2022-07-29T03:27:36;7.93;;;7.15;;
18001;SDS011;9126;48.160;17.130;2022-07-29T03:30:04;8.85;;;7.13;;
18001;SDS011;9126;48.160;17.130;2022-07-29T03:32:32;10.95;;;8.45;;
18001;SDS011;9126;48.160;17.130;2022-07-29T03:34:59;8.32;;;7.43;;
18001;SDS011;9126;48.160;17.130;2022-07-29T03:37:27;11.25;;;8.02;;
18001;SDS011;9126;48.160;17.130;2022-07-29T03:39:56;7.93;;;7.22;;
18001;SDS011;9126;48.160;17.130;2022-07-29T03:42:24;8.65;;;7.70;;
18001;SDS011;9126;48.160;17.130;2022-07-29T03:44:54;9.23;;;7.82;;
18001;SDS011;9126;48.160;17.130;2022-07-29T03:47:29;9.90;;;7.68;;
18001;SDS011;9126;48.160;17.130;2022-07-29T03:49:59;8.80;;;7.80;;
18001;SDS011;9126;48.160;17.130;2022-07-29T03:52:33;9.85;;;8.18;;
18001;SDS011;9126;48.160;17.130;2022-07-29T03:55:00;10.32;;;8.55;;
18001;SDS011;9126;48.160;17.130;2022-07-29T03:57:28;8.50;;;7.65;;
18001;SDS011;9126;48.160;17.130;2022-07-29T03:59:57;22.70;;;8.05;;
18001;SDS011;9126;48.160;17.130;2022-07-29T04:02:25;7.63;;;6.88;;
18001;SDS011;9126;48.160;17.130;2022-07-29T04:04:52;6.45;;;5.85;;
18001;SDS011;9126;48.160;17.130;2022-07-29T04:07:20;10.45;;;6.30;;
18001;SDS011;9126;48.160;17.130;2022-07-29T04:09:48;10.23;;;6.50;;
18001;SDS011;9126;48.160;17.130;2022-07-29T04:12:23;8.25;;;6.55;;
18001;SDS011;9126;48.160;17.130;2022-07-29T04:14:57;8.25;;;6.18;;
18001;SDS011;9126;48.160;17.130;2022-07-29T04:17:24;8.55;;;6.43;;
18001;SDS011;9126;48.160;17.130;2022-07-29T04:19:51;8.27;;;6.65;;
18001;SDS011;9126;48.160;17.130;2022-07-29T04:22:21;7.93;;;7.13;;
18001;SDS011;9126;48.160;17.130;2022-07-29T04:24:50;9.50;;;7.05;;
18001;SDS011;9126;48.160;17.130;2022-07-29T04:27:17;10.48;;;6.97;;
18001;SDS011;9126;48.160;17.130;2022-07-29T04:29:44;9.90;;;7.03;;
18001;SDS011;9126;48.160;17.130;2022-07-29T04:32:11;9.18;;;7.60;;
18001;SDS011;9126;48.160;17.130;2022-07-29T04:34:38;8.65;;;7.95;;
18001;SDS011;9126;48.160;17.130;2022-07-29T04:37:05;8.93;;;8.13;;
18001;SDS011;9126;48.160;17.130;2022-07-29T04:39:32;10.00;;;8.60;;
18001;SDS011;9126;48.160;17.130;2022-07-29T04:42:01;8.90;;;7.45;;
18001;SDS011;9126;48.160;17.130;2022-07-29T04:44:28;7.90;;;7.10;;
18001;SDS011;9126;48.160;17.130;2022-07-29T04:46:55;7.68;;;6.32;;
18001;SDS011;9126;48.160;17.130;2022-07-29T04:49:23;6.70;;;5.93;;
18001;SDS011;9126;48.160;17.130;2022-07-29T04:51:50;16.33;;;5.35;;
18001;SDS011;9126;48.160;17.130;2022-07-29T04:54:17;7.00;;;4.70;;
18001;SDS011;9126;48.160;17.130;2022-07-29T04:56:44;7.80;;;4.18;;
18001;SDS011;9126;48.160;17.130;2022-07-29T04:59:13;5.38;;;4.00;;
18001;SDS011;9126;48.160;17.130;2022-07-29T05:01:40;4.50;;;3.65;;
18001;SDS011;9126;48.160;17.130;2022-07-29T05:04:07;4.93;;;3.35;;
18001;SDS011;9126;48.160;17.130;2022-07-29T05:06:34;6.22;;;3.60;;
18001;SDS011;9126;48.160;17.130;2022-07-29T05:09:04;7.80;;;3.55;;
18001;SDS011;9126;48.160;17.130;2022-07-29T05:11:33;3.80;;;3.40;;
18001;SDS011;9126;48.160;17.130;2022-07-29T05:14:00;6.30;;;3.85;;
18001;SDS011;9126;48.160;17.130;2022-07-29T05:16:29;5.72;;;3.63;;
18001;SDS011;9126;48.160;17.130;2022-07-29T05:18:56;6.25;;;3.75;;
18001;SDS011;9126;48.160;17.130;2022-07-29T05:21:23;6.18;;;3.85;;
18001;SDS011;9126;48.160;17.130;2022-07-29T05:23:50;6.60;;;4.00;;
18001;SDS011;9126;48.160;17.130;2022-07-29T05:26:17;7.95;;;3.63;;
18001;SDS011;9126;48.160;17.130;2022-07-29T05:28:44;5.95;;;3.63;;
18001;SDS011;9126;48.160;17.130;2022-07-29T05:31:11;6.95;;;3.30;;
18001;SDS011;9126;48.160;17.130;2022-07-29T05:33:41;6.13;;;3.80;;
18001;SDS011;9126;48.160;17.130;2022-07-29T05:36:08;7.38;;;4.05;;
18001;SDS011;9126;48.160;17.130;2022-07-29T05:38:35;4.20;;;3.60;;
18001;SDS011;9126;48.160;17.130;2022-07-29T05:41:03;9.20;;;4.25;;
18001;SDS011;9126;48.160;17.130;2022-07-29T05:43:30;6.55;;;3.65;;
18001;SDS011;9126;48.160;17.130;2022-07-29T05:45:58;5.43;;;3.50;;
18001;SDS011;9126;48.160;17.130;2022-07-29T05:48:25;4.07;;;3.45;;
18001;SDS011;9126;48.160;17.130;2022-07-29T05:51:01;6.60;;;4.15;;
18001;SDS011;9126;48.160;17.130;2022-07-29T05:53:32;5.28;;;3.70;;
18001;SDS011;9126;48.160;17.130;2022-07-29T05:56:07;5.55;;;3.70;;
18001;SDS011;9126;48.160;17.130;2022-07-29T05:58:37;6.93;;;4.10;;
18001;SDS011;9126;48.160;17.130;2022-07-29T06:01:06;5.00;;;3.80;;
18001;SDS011;9126;48.160;17.130;2022-07-29T06:03:34;7.13;;;3.63;;
18001;SDS011;9126;48.160;17.130;2022-07-29T06:06:05;4.57;;;3.58;;
18001;SDS011;9126;48.160;17.130;2022-07-29T06:08:39;6.90;;;3.60;;
18001;SDS011;9126;48.160;17.130;2022-07-29T06:11:07;3.97;;;3.60;;
18001;SDS011;9126;48.160;17.130;2022-07-29T06:13:34;7.22;;;3.95;;
18001;SDS011;9126;48.160;17.130;2022-07-29T06:16:01;12.30;;;3.45;;
18001;SDS011;9126;48.160;17.130;2022-07-29T06:18:29;7.45;;;3.83;;
18001;SDS011;9126;48.160;17.130;2022-07-29T06:20:57;4.53;;;3.83;;
18001;SDS011;9126;48.160;17.130;2022-07-29T06:23:26;4.68;;;3.72;;
18001;SDS011;9126;48.160;17.130;2022-07-29T06:25:53;4.80;;;3.90;;
18001;SDS011;9126;48.160;17.130;2022-07-29T06:28:20;16.92;;;4.95;;
18001;SDS011;9126;48.160;17.130;2022-07-29T06:30:47;6.13;;;3.95;;
18001;SDS011;9126;48.160;17.130;2022-07-29T06:33:17;4.78;;;3.63;;
18001;SDS011;9126;48.160;17.130;2022-07-29T06:35:44;5.72;;;3.95;;
18001;SDS011;9126;48.160;17.130;2022-07-29T06:38:12;6.25;;;3.40;;
18001;SDS011;9126;48.160;17.130;2022-07-29T06:40:45;5.10;;;3.70;;
18001;SDS011;9126;48.160;17.130;2022-07-29T06:43:28;7.50;;;3.95;;
18001;SDS011;9126;48.160;17.130;2022-07-29T06:46:02;6.35;;;4.07;;
18001;SDS011;9126;48.160;17.130;2022-07-29T06:48:29;6.47;;;3.80;;
18001;SDS011;9126;48.160;17.130;2022-07-29T06:50:57;12.27;;;4.63;;
18001;SDS011;9126;48.160;17.130;2022-07-29T06:53:25;6.90;;;3.90;;
18001;SDS011;9126;48.160;17.130;2022-07-29T06:55:53;4.28;;;3.88;;
18001;SDS011;9126;48.160;17.130;2022-07-29T06:58:21;8.48;;;4.05;;
18001;SDS011;9126;48.160;17.130;2022-07-29T07:00:48;4.68;;;4.18;;
18001;SDS011;9126;48.160;17.130;2022-07-29T07:03:15;8.38;;;4.30;;
18001;SDS011;9126;48.160;17.130;2022-07-29T07:05:42;11.90;;;4.30;;
18001;SDS011;9126;48.160;17.130;2022-07-29T07:08:10;7.18;;;4.43;;
18001;SDS011;9126;48.160;17.130;2022-07-29T07:10:37;12.30;;;4.60;;
18001;SDS011;9126;48.160;17.130;2022-07-29T07:13:06;9.30;;;4.13;;
18001;SDS011;9126;48.160;17.130;2022-07-29T07:15:33;9.70;;;4.90;;
18001;SDS011;9126;48.160;17.130;2022-07-29T07:18:02;5.63;;;4.32;;
18001;SDS011;9126;48.160;17.130;2022-07-29T07:20:29;7.28;;;4.13;;
18001;SDS011;9126;48.160;17.130;2022-07-29T07:22:56;7.65;;;4.18;;
18001;SDS011;9126;48.160;17.130;2022-07-29T07:25:23;7.75;;;3.92;;
18001;SDS011;9126;48.160;17.130;2022-07-29T07:27:51;7.72;;;4.05;;
18001;SDS011;9126;48.160;17.130;2022-07-29T07:30:19;7.03;;;4.13;;
18001;SDS011;9126;48.160;17.130;2022-07-29T07:32:46;6.15;;;4.22;;
18001;SDS011;9126;48.160;17.130;2022-07-29T07:35:14;11.23;;;4.45;;
18001;SDS011;9126;48.160;17.130;2022-07-29T07:37:41;5.00;;;4.05;;
18001;SDS011;9126;48.160;17.130;2022-07-29T07:40:08;4.20;;;3.80;;
18001;SDS011;9126;48.160;17.130;2022-07-29T07:42:37;6.13;;;3.97;;
18001;SDS011;9126;48.160;17.130;2022-07-29T07:45:05;6.63;;;4.30;;
18001;SDS011;9126;48.160;17.130;2022-07-29T07:47:35;5.65;;;4.07;;
18001;SDS011;9126;48.160;17.130;2022-07-29T07:50:03;7.20;;;4.07;;
18001;SDS011;9126;48.160;17.130;2022-07-29T07:52:31;6.65;;;3.90;;
18001;SDS011;9126;48.160;17.130;2022-07-29T07:54:58;5.97;;;3.72;;
18001;SDS011;9126;48.160;17.130;2022-07-29T07:57:26;5.53;;;4.07;;
18001;SDS011;9126;48.160;17.130;2022-07-29T07:59:53;15.50;;;5.03;;
18001;SDS011;9126;48.160;17.130;2022-07-29T08:02:20;4.35;;;3.88;;
18001;SDS011;9126;48.160;17.130;2022-07-29T08:04:51;5.03;;;3.40;;
18001;SDS011;9126;48.160;17.130;2022-07-29T08:07:18;5.97;;;3.85;;
18001;SDS011;9126;48.160;17.130;2022-07-29T08:09:45;7.05;;;3.92;;
18001;SDS011;9126;48.160;17.130;2022-07-29T08:12:12;4.97;;;3.95;;
18001;SDS011;9126;48.160;17.130;2022-07-29T08:14:39;13.00;;;4.35;;
18001;SDS011;9126;48.160;17.130;2022-07-29T08:17:06;4.93;;;4.53;;
18001;SDS011;9126;48.160;17.130;2022-07-29T08:19:33;6.53;;;3.67;;
18001;SDS011;9126;48.160;17.130;2022-07-29T08:22:03;5.95;;;3.63;;
18001;SDS011;9126;48.160;17.130;2022-07-29T08:24:30;3.95;;;3.63;;
18001;SDS011;9126;48.160;17.130;2022-07-29T08:27:09;7.15;;;4.22;;
18001;SDS011;9126;48.160;17.130;2022-07-29T08:29:37;5.50;;;3.95;;
18001;SDS011;9126;48.160;17.130;2022-07-29T08:32:04;8.60;;;4.60;;
18001;SDS011;9126;48.160;17.130;2022-07-29T08:34:32;9.73;;;3.58;;
18001;SDS011;9126;48.160;17.130;2022-07-29T08:36:59;5.03;;;3.30;;
18001;SDS011;9126;48.160;17.130;2022-07-29T08:39:30;6.13;;;3.53;;
18001;SDS011;9126;48.160;17.130;2022-07-29T08:41:58;3.25;;;2.97;;
18001;SDS011;9126;48.160;17.130;2022-07-29T08:44:27;5.25;;;3.42;;
18001;SDS011;9126;48.160;17.130;2022-07-29T08:46:54;5.10;;;3.60;;
18001;SDS011;9126;48.160;17.130;2022-07-29T08:49:21;6.13;;;3.20;;
18001;SDS011;9126;48.160;17.130;2022-07-29T08:51:48;6.88;;;3.33;;
18001;SDS011;9126;48.160;17.130;2022-07-29T08:54:17;6.53;;;4.10;;
18001;SDS011;9126;48.160;17.130;2022-07-29T08:56:46;7.15;;;3.85;;
18001;SDS011;9126;48.160;17.130;2022-07-29T08:59:16;8.60;;;3.88;;
18001;SDS011;9126;48.160;17.130;2022-07-29T09:01:46;7.75;;;3.30;;
18001;SDS011;9126;48.160;17.130;2022-07-29T09:04:14;7.15;;;3.55;;
18001;SDS011;9126;48.160;17.130;2022-07-29T09:06:43;7.20;;;3.92;;
18001;SDS011;9126;48.160;17.130;2022-07-29T09:09:11;4.40;;;3.25;;
18001;SDS011;9126;48.160;17.130;2022-07-29T09:11:40;5.35;;;3.78;;
18001;SDS011;9126;48.160;17.130;2022-07-29T09:14:09;7.47;;;3.80;;
18001;SDS011;9126;48.160;17.130;2022-07-29T09:16:48;5.22;;;3.42;;
18001;SDS011;9126;48.160;17.130;2022-07-29T09:19:20;5.13;;;3.50;;
18001;SDS011;9126;48.160;17.130;2022-07-29T09:21:48;4.70;;;3.30;;
18001;SDS011;9126;48.160;17.130;2022-07-29T09:24:24;4.68;;;3.65;;
18001;SDS011;9126;48.160;17.130;2022-07-29T09:26:53;6.65;;;3.50;;
18001;SDS011;9126;48.160;17.130;2022-07-29T09:29:22;5.65;;;3.40;;
18001;SDS011;9126;48.160;17.130;2022-07-29T09:31:50;3.90;;;2.95;;
18001;SDS011;9126;48.160;17.130;2022-07-29T09:34:21;5.63;;;3.40;;
18001;SDS011;9126;48.160;17.130;2022-07-29T09:36:50;10.73;;;3.95;;
18001;SDS011;9126;48.160;17.130;2022-07-29T09:39:26;4.20;;;3.35;;
18001;SDS011;9126;48.160;17.130;2022-07-29T09:41:55;6.78;;;4.20;;
18001;SDS011;9126;48.160;17.130;2022-07-29T09:44:24;7.32;;;4.03;;
18001;SDS011;9126;48.160;17.130;2022-07-29T09:46:56;5.57;;;5.03;;
18001;SDS011;9126;48.160;17.130;2022-07-29T09:49:27;20.20;;;13.27;;
18001;SDS011;9126;48.160;17.130;2022-07-29T09:52:03;4.38;;;3.55;;
18001;SDS011;9126;48.160;17.130;2022-07-29T09:54:31;7.20;;;5.25;;
18001;SDS011;9126;48.160;17.130;2022-07-29T09:57:02;3.63;;;2.92;;
18001;SDS011;9126;48.160;17.130;2022-07-29T09:59:31;3.33;;;3.03;;
18001;SDS011;9126;48.160;17.130;2022-07-29T10:02:01;6.10;;;5.05;;
18001;SDS011;9126;48.160;17.130;2022-07-29T10:04:39;8.07;;;4.63;;
18001;SDS011;9126;48.160;17.130;2022-07-29T10:07:07;11.80;;;9.60;;
18001;SDS011;9126;48.160;17.130;2022-07-29T10:09:35;8.98;;;5.53;;
18001;SDS011;9126;48.160;17.130;2022-07-29T10:12:06;4.93;;;3.20;;
18001;SDS011;9126;48.160;17.130;2022-07-29T10:14:37;5.13;;;3.22;;
18001;SDS011;9126;48.160;17.130;2022-07-29T10:17:05;5.15;;;3.33;;
18001;SDS011;9126;48.160;17.130;2022-07-29T10:19:33;5.70;;;2.85;;
18001;SDS011;9126;48.160;17.130;2022-07-29T10:22:03;5.78;;;4.88;;
18001;SDS011;9126;48.160;17.130;2022-07-29T10:24:32;6.78;;;3.00;;
18001;SDS011;9126;48.160;17.130;2022-07-29T10:27:01;3.67;;;2.58;;
18001;SDS011;9126;48.160;17.130;2022-07-29T10:29:29;5.38;;;3.20;;
18001;SDS011;9126;48.160;17.130;2022-07-29T10:32:02;3.20;;;2.67;;
18001;SDS011;9126;48.160;17.130;2022-07-29T10:34:48;3.70;;;2.50;;
18001;SDS011;9126;48.160;17.130;2022-07-29T10:37:28;5.78;;;3.13;;
18001;SDS011;9126;48.160;17.130;2022-07-29T10:40:11;5.70;;;2.90;;
18001;SDS011;9126;48.160;17.130;2022-07-29T10:43:07;5.05;;;2.80;;
18001;SDS011;9126;48.160;17.130;2022-07-29T10:45:44;4.78;;;2.70;;
18001;SDS011;9126;48.160;17.130;2022-07-29T10:48:14;4.47;;;3.10;;
18001;SDS011;9126;48.160;17.130;2022-07-29T10:53:45;3.70;;;2.95;;
18001;SDS011;9126;48.160;17.130;2022-07-29T11:01:51;6.50;;;2.70;;
18001;SDS011;9126;48.160;17.130;2022-07-29T11:07:26;4.95;;;3.10;;
18001;SDS011;9126;48.160;17.130;2022-07-29T11:12:48;4.22;;;2.95;;
18001;SDS011;9126;48.160;17.130;2022-07-29T11:15:17;6.25;;;2.92;;
18001;SDS011;9126;48.160;17.130;2022-07-29T11:18:05;5.45;;;2.65;;
18001;SDS011;9126;48.160;17.130;2022-07-29T11:20:34;4.60;;;3.20;;
18001;SDS011;9126;48.160;17.130;2022-07-29T11:28:52;3.35;;;2.63;;
18001;SDS011;9126;48.160;17.130;2022-07-29T11:31:34;3.95;;;2.95;;
18001;SDS011;9126;48.160;17.130;2022-07-29T11:34:18;2.85;;;2.35;;
18001;SDS011;9126;48.160;17.130;2022-07-29T11:39:42;4.43;;;2.83;;
18001;SDS011;9126;48.160;17.130;2022-07-29T11:45:16;5.85;;;2.90;;
18001;SDS011;9126;48.160;17.130;2022-07-29T11:47:47;6.40;;;3.60;;
18001;SDS011;9126;48.160;17.130;2022-07-29T11:50:18;2.88;;;2.60;;
18001;SDS011;9126;48.160;17.130;2022-07-29T11:52:55;3.50;;;3.03;;
18001;SDS011;9126;48.160;17.130;2022-07-29T11:55:24;5.15;;;2.97;;
18001;SDS011;9126;48.160;17.130;2022-07-29T11:57:52;3.70;;;2.60;;
18001;SDS011;9126;48.160;17.130;2022-07-29T12:00:30;7.72;;;3.28;;
18001;SDS011;9126;48.160;17.130;2022-07-29T12:03:00;6.38;;;2.80;;
18001;SDS011;9126;48.160;17.130;2022-07-29T12:05:37;5.07;;;2.88;;
18001;SDS011;9126;48.160;17.130;2022-07-29T12:08:06;2.72;;;2.53;;
18001;SDS011;9126;48.160;17.130;2022-07-29T12:10:37;4.45;;;2.83;;
18001;SDS011;9126;48.160;17.130;2022-07-29T12:13:04;4.80;;;2.35;;
18001;SDS011;9126;48.160;17.130;2022-07-29T12:15:31;9.43;;;2.80;;
18001;SDS011;9126;48.160;17.130;2022-07-29T12:17:59;4.28;;;3.22;;
18001;SDS011;9126;48.160;17.130;2022-07-29T12:20:36;5.28;;;2.70;;
18001;SDS011;9126;48.160;17.130;2022-07-29T12:23:05;4.43;;;3.28;;
18001;SDS011;9126;48.160;17.130;2022-07-29T12:25:34;4.57;;;2.90;;
18001;SDS011;9126;48.160;17.130;2022-07-29T12:28:04;5.88;;;3.03;;
18001;SDS011;9126;48.160;17.130;2022-07-29T12:30:35;4.53;;;2.67;;
18001;SDS011;9126;48.160;17.130;2022-07-29T12:33:12;6.40;;;2.90;;
18001;SDS011;9126;48.160;17.130;2022-07-29T12:35:41;4.25;;;2.72;;
18001;SDS011;9126;48.160;17.130;2022-07-29T12:38:11;6.25;;;2.83;;
18001;SDS011;9126;48.160;17.130;2022-07-29T12:40:40;4.50;;;2.80;;
18001;SDS011;9126;48.160;17.130;2022-07-29T12:43:08;5.28;;;2.30;;
18001;SDS011;9126;48.160;17.130;2022-07-29T12:45:36;3.30;;;2.60;;
18001;SDS011;9126;48.160;17.130;2022-07-29T12:48:04;6.57;;;3.15;;
18001;SDS011;9126;48.160;17.130;2022-07-29T12:50:33;10.25;;;3.38;;
18001;SDS011;9126;48.160;17.130;2022-07-29T12:53:08;9.63;;;3.22;;
18001;SDS011;9126;48.160;17.130;2022-07-29T12:55:44;5.32;;;3.15;;
18001;SDS011;9126;48.160;17.130;2022-07-29T12:58:14;5.68;;;2.85;;
18001;SDS011;9126;48.160;17.130;2022-07-29T13:01:01;4.88;;;2.88;;
18001;SDS011;9126;48.160;17.130;2022-07-29T13:03:42;3.85;;;2.90;;
18001;SDS011;9126;48.160;17.130;2022-07-29T13:09:05;8.88;;;3.00;;
18001;SDS011;9126;48.160;17.130;2022-07-29T13:11:35;4.82;;;3.15;;
18001;SDS011;9126;48.160;17.130;2022-07-29T13:14:06;8.63;;;3.20;;
18001;SDS011;9126;48.160;17.130;2022-07-29T13:16:36;4.55;;;2.70;;
18001;SDS011;9126;48.160;17.130;2022-07-29T13:19:33;7.43;;;2.90;;
18001;SDS011;9126;48.160;17.130;2022-07-29T13:22:01;3.15;;;2.83;;
18001;SDS011;9126;48.160;17.130;2022-07-29T13:24:28;3.22;;;2.55;;
18001;SDS011;9126;48.160;17.130;2022-07-29T13:26:55;2.40;;;2.15;;
18001;SDS011;9126;48.160;17.130;2022-07-29T13:29:22;9.50;;;2.97;;
18001;SDS011;9126;48.160;17.130;2022-07-29T13:31:51;5.68;;;2.90;;
18001;SDS011;9126;48.160;17.130;2022-07-29T13:34:18;7.30;;;3.20;;
18001;SDS011;9126;48.160;17.130;2022-07-29T13:36:48;3.92;;;2.45;;
18001;SDS011;9126;48.160;17.130;2022-07-29T13:39:15;2.88;;;2.50;;
18001;SDS011;9126;48.160;17.130;2022-07-29T13:41:42;3.33;;;2.25;;
18001;SDS011;9126;48.160;17.130;2022-07-29T13:44:10;7.93;;;3.10;;
18001;SDS011;9126;48.160;17.130;2022-07-29T13:46:37;2.80;;;2.42;;
18001;SDS011;9126;48.160;17.130;2022-07-29T13:49:04;6.03;;;2.38;;
18001;SDS011;9126;48.160;17.130;2022-07-29T13:51:31;4.53;;;2.60;;
18001;SDS011;9126;48.160;17.130;2022-07-29T13:53:59;3.35;;;2.40;;
18001;SDS011;9126;48.160;17.130;2022-07-29T13:56:26;7.10;;;2.40;;
18001;SDS011;9126;48.160;17.130;2022-07-29T13:58:53;4.53;;;2.30;;
18001;SDS011;9126;48.160;17.130;2022-07-29T14:01:23;2.97;;;2.60;;
18001;SDS011;9126;48.160;17.130;2022-07-29T14:03:51;7.65;;;2.72;;
18001;SDS011;9126;48.160;17.130;2022-07-29T14:06:18;4.90;;;2.85;;
18001;SDS011;9126;48.160;17.130;2022-07-29T14:08:48;4.40;;;2.70;;
18001;SDS011;9126;48.160;17.130;2022-07-29T14:11:16;12.02;;;4.03;;
18001;SDS011;9126;48.160;17.130;2022-07-29T14:13:43;4.60;;;2.88;;
18001;SDS011;9126;48.160;17.130;2022-07-29T14:16:10;2.95;;;2.55;;
18001;SDS011;9126;48.160;17.130;2022-07-29T14:18:37;3.63;;;2.22;;
18001;SDS011;9126;48.160;17.130;2022-07-29T14:21:04;3.08;;;2.78;;
18001;SDS011;9126;48.160;17.130;2022-07-29T14:23:34;3.58;;;3.28;;
18001;SDS011;9126;48.160;17.130;2022-07-29T14:26:01;3.20;;;2.88;;
18001;SDS011;9126;48.160;17.130;2022-07-29T14:28:29;3.45;;;2.67;;
18001;SDS011;9126;48.160;17.130;2022-07-29T14:30:56;5.13;;;2.65;;
18001;SDS011;9126;48.160;17.130;2022-07-29T14:33:23;2.85;;;2.45;;
18001;SDS011;9126;48.160;17.130;2022-07-29T14:35:51;3.42;;;2.60;;
18001;SDS011;9126;48.160;17.130;2022-07-29T14:38:18;5.63;;;3.00;;
18001;SDS011;9126;48.160;17.130;2022-07-29T14:40:45;6.70;;;2.92;;
18001;SDS011;9126;48.160;17.130;2022-07-29T14:43:12;3.95;;;2.80;;
18001;SDS011;9126;48.160;17.130;2022-07-29T14:45:42;5.05;;;2.70;;
18001;SDS011;9126;48.160;17.130;2022-07-29T14:48:09;5.40;;;2.67;;
18001;SDS011;9126;48.160;17.130;2022-07-29T14:50:37;4.28;;;2.90;;
18001;SDS011;9126;48.160;17.130;2022-07-29T14:53:04;5.72;;;2.95;;
18001;SDS011;9126;48.160;17.130;2022-07-29T14:55:31;5.10;;;3.00;;
18001;SDS011;9126;48.160;17.130;2022-07-29T14:57:58;5.00;;;2.88;;
18001;SDS011;9126;48.160;17.130;2022-07-29T15:00:26;4.50;;;2.30;;
18001;SDS011;9126;48.160;17.130;2022-07-29T15:02:58;4.38;;;2.80;;
18001;SDS011;9126;48.160;17.130;2022-07-29T15:05:25;5.00;;;2.97;;
18001;SDS011;9126;48.160;17.130;2022-07-29T15:07:52;3.45;;;2.28;;
18001;SDS011;9126;48.160;17.130;2022-07-29T15:10:20;4.25;;;2.50;;
18001;SDS011;9126;48.160;17.130;2022-07-29T15:12:47;7.18;;;2.65;;
18001;SDS011;9126;48.160;17.130;2022-07-29T15:15:16;3.88;;;2.78;;
18001;SDS011;9126;48.160;17.130;2022-07-29T15:17:43;17.90;;;3.95;;
18001;SDS011;9126;48.160;17.130;2022-07-29T15:20:12;8.90;;;3.40;;
18001;SDS011;9126;48.160;17.130;2022-07-29T15:22:39;8.27;;;3.30;;
18001;SDS011;9126;48.160;17.130;2022-07-29T15:25:07;7.55;;;3.17;;
18001;SDS011;9126;48.160;17.130;2022-07-29T15:27:35;11.68;;;3.45;;
18001;SDS011;9126;48.160;17.130;2022-07-29T15:30:02;7.95;;;3.15;;